Ext Villa Rita, Puerto Rico
Current Conditions -  °F | °C
As of 7:50 AM on Thursday 29 Jan 2015 (Local Time) from TJBQ Reporting Station
Clear Clear  
Wind Chill: 70°   Ceiling: Unl
Heat Index: 70°   Visibility: 10mi
Dew Point: 66°   Wind: 3mph
Humidity: 88%   Direction: 120°ESE
Pressure: 30.03"   Gusts: NA
Location:  18.3413°N, 66.991°W
Report Text: TJBQ 291150Z 12003KT 10SM SKC 21/19 A3003 RMK RWY 08 ATIS C
Loading
Personal Weather Stations






























Interactive Weather Map New forecast layout! Learn more

10-Day Weather Forecast

Advertisements
Track Severe Weather on mobile